Time;durP1;ratioP1;P1;durP2;ratioP2;P2;SDS_P1;SDS_P2;PMS_P1;PMS_P2;Temp;Humidity;BMP_temperature;BMP_pressure;BME280_temperature;BME280_humidity;BME280_pressure;Samples;Min_cycle;Max_cycle;Signal;HPM_P1;HPM_P2
2022/12/04 00:00:29;;;;;;;50.75;24.05;;;3.30;99.90;;;;;;4154965;28;20086;-72
2022/12/04 00:02:29;;;;;;;52.47;26.42;;;3.30;99.90;;;;;;4162139;28;20029;-72
2022/12/04 00:04:30;;;;;;;50.08;25.58;;;3.30;99.90;;;;;;4156305;28;20038;-72
2022/12/04 00:06:32;;;;;;;53.00;25.60;;;3.40;99.90;;;;;;4152053;28;20044;-72
2022/12/04 00:08:33;;;;;;;52.88;25.58;;;3.30;99.90;;;;;;4136829;28;20101;-72
2022/12/04 00:10:33;;;;;;;54.17;25.98;;;3.40;99.90;;;;;;4148938;28;20417;-72
2022/12/04 00:12:34;;;;;;;61.67;28.48;;;3.40;99.90;;;;;;4151411;28;20037;-72
2022/12/04 00:14:35;;;;;;;63.55;28.23;;;3.10;99.90;;;;;;4149377;28;20052;-72
2022/12/04 00:16:35;;;;;;;56.88;27.30;;;3.00;99.90;;;;;;4151302;28;20034;-72
2022/12/04 00:18:36;;;;;;;56.65;27.73;;;2.90;99.90;;;;;;4145518;28;20388;-72
2022/12/04 00:20:40;;;;;;;55.30;26.65;;;2.80;99.90;;;;;;4145755;28;20432;-72
2022/12/04 00:22:40;;;;;;;56.80;28.33;;;2.80;99.90;;;;;;4150273;28;20061;-72
2022/12/04 00:24:41;;;;;;;56.78;27.92;;;2.60;99.90;;;;;;4152430;28;20555;-72
2022/12/04 00:26:42;;;;;;;61.25;28.35;;;2.50;99.90;;;;;;4146886;28;20412;-72
2022/12/04 00:28:43;;;;;;;57.88;26.60;;;2.50;99.90;;;;;;4150676;28;20468;-72
2022/12/04 00:30:44;;;;;;;48.00;24.50;;;2.50;99.90;;;;;;4162128;28;20037;-72
2022/12/04 00:32:45;;;;;;;51.95;24.58;;;2.60;99.90;;;;;;4143439;28;20045;-72
2022/12/04 00:34:45;;;;;;;48.95;24.38;;;2.70;99.90;;;;;;4153673;28;20033;-72
2022/12/04 00:36:46;;;;;;;54.60;26.42;;;2.70;99.90;;;;;;4150475;28;20045;-73
2022/12/04 00:38:47;;;;;;;53.60;25.60;;;2.70;99.90;;;;;;4156942;28;20037;-72
2022/12/04 00:40:50;;;;;;;58.60;27.35;;;2.60;99.90;;;;;;4148895;28;20044;-72
2022/12/04 00:42:50;;;;;;;54.45;27.08;;;2.60;99.90;;;;;;4152154;28;20029;-72
2022/12/04 00:44:51;;;;;;;51.67;25.63;;;2.50;99.90;;;;;;4151990;28;20041;-72
2022/12/04 00:46:52;;;;;;;52.78;25.52;;;2.60;99.90;;;;;;4154969;28;20045;-73
2022/12/04 00:48:52;;;;;;;53.10;25.75;;;2.80;99.90;;;;;;4155191;28;20168;-70
2022/12/04 00:50:54;;;;;;;58.60;27.65;;;2.70;99.90;;;;;;4147983;28;20477;-72
2022/12/04 00:52:56;;;;;;;55.83;26.85;;;2.70;99.90;;;;;;4133696;28;20569;-72
2022/12/04 00:54:57;;;;;;;53.00;26.52;;;2.80;99.90;;;;;;4153929;28;20042;-72
2022/12/04 00:56:57;;;;;;;57.33;27.45;;;2.70;99.90;;;;;;4150065;28;20045;-72
2022/12/04 00:59:00;;;;;;;55.15;25.77;;;2.70;99.90;;;;;;4153309;28;20065;-72
2022/12/04 01:01:08;;;;;;;55.33;26.52;;;2.70;99.90;;;;;;4153465;28;20042;-72
2022/12/04 01:03:09;;;;;;;60.03;27.23;;;2.70;99.90;;;;;;4150512;28;20129;-73
2022/12/04 01:05:10;;;;;;;59.60;27.73;;;2.60;99.90;;;;;;4156114;28;20048;-74
2022/12/04 01:07:10;;;;;;;60.90;28.70;;;2.70;99.90;;;;;;4148162;28;20037;-72
2022/12/04 01:09:11;;;;;;;57.83;27.80;;;2.60;99.90;;;;;;4154782;28;20033;-72
2022/12/04 01:11:12;;;;;;;57.80;26.90;;;2.60;99.90;;;;;;4152723;28;20038;-72
2022/12/04 01:13:12;;;;;;;57.47;26.42;;;2.60;99.90;;;;;;4147084;28;20604;-72
2022/12/04 01:15:13;;;;;;;57.60;26.90;;;2.60;99.90;;;;;;4150317;28;20061;-71
2022/12/04 01:17:13;;;;;;;50.20;25.10;;;2.60;99.90;;;;;;4161839;28;20046;-72
2022/12/04 01:19:14;;;;;;;52.75;24.88;;;2.60;99.90;;;;;;4147285;28;20029;-72
2022/12/04 01:21:15;;;;;;;54.08;25.77;;;2.70;99.90;;;;;;4155268;28;20033;-72
2022/12/04 01:23:17;;;;;;;52.95;25.80;;;2.70;99.90;;;;;;4153332;28;20033;-73
2022/12/04 01:25:18;;;;;;;53.28;25.42;;;2.80;99.90;;;;;;4151933;28;20486;-73
2022/12/04 01:27:18;;;;;;;52.58;26.40;;;2.80;99.90;;;;;;4160040;28;20029;-73
2022/12/04 01:29:19;;;;;;;53.47;27.23;;;2.90;99.90;;;;;;4161045;28;20531;-73
2022/12/04 01:31:20;;;;;;;55.00;27.27;;;2.80;99.90;;;;;;4154585;28;20542;-73
2022/12/04 01:33:21;;;;;;;52.92;25.10;;;2.70;99.90;;;;;;4151353;28;20053;-72
2022/12/04 01:35:21;;;;;;;55.65;26.80;;;2.70;99.90;;;;;;4160115;28;20044;-72
2022/12/04 01:37:22;;;;;;;58.00;27.05;;;2.60;99.90;;;;;;4154465;28;20033;-72
2022/12/04 01:39:22;;;;;;;57.10;27.83;;;2.50;99.90;;;;;;4150437;28;20042;-72
2022/12/04 01:41:26;;;;;;;52.72;27.45;;;2.60;99.90;;;;;;4157179;28;20038;-71
2022/12/04 01:43:30;;;;;;;60.55;28.90;;;2.50;99.90;;;;;;4131329;28;20223;-73
2022/12/04 01:45:30;;;;;;;59.67;28.30;;;2.40;99.90;;;;;;4152215;28;20516;-72
2022/12/04 01:47:31;;;;;;;59.33;28.73;;;2.30;99.90;;;;;;4147232;28;20041;-72
2022/12/04 01:49:38;;;;;;;62.92;28.70;;;2.30;99.90;;;;;;4159705;28;20037;-72
2022/12/04 01:51:43;;;;;;;63.17;29.20;;;2.20;99.90;;;;;;4154597;28;20034;-72
2022/12/04 01:53:58;;;;;;;58.80;28.80;;;2.20;99.90;;;;;;4155681;28;20129;-72
2022/12/04 01:55:59;;;;;;;58.58;29.42;;;2.10;99.90;;;;;;4156163;28;20430;-72
2022/12/04 01:58:01;;;;;;;57.42;28.60;;;2.10;99.90;;;;;;4154743;28;20030;-72
2022/12/04 02:00:14;;;;;;;66.20;29.80;;;2.10;99.90;;;;;;4160896;28;20048;-73
2022/12/04 02:02:19;;;;;;;65.68;30.02;;;2.10;99.90;;;;;;4151748;28;20391;-72
2022/12/04 02:04:20;;;;;;;61.25;29.55;;;2.10;99.90;;;;;;4148035;28;20033;-72
2022/12/04 02:06:21;;;;;;;63.15;29.83;;;2.10;99.90;;;;;;4154183;28;20037;-72
2022/12/04 02:08:22;;;;;;;57.72;28.45;;;2.10;99.90;;;;;;4152341;28;20062;-72
2022/12/04 02:10:37;;;;;;;62.67;29.23;;;2.10;99.90;;;;;;4156094;28;20443;-72
2022/12/04 02:13:02;;;;;;;59.70;28.70;;;2.10;99.90;;;;;;4154145;28;20440;-71
2022/12/04 02:15:05;;;;;;;64.10;29.42;;;2.10;99.90;;;;;;4154266;28;20070;-72
2022/12/04 02:17:29;;;;;;;63.92;29.52;;;2.20;99.90;;;;;;4153749;28;20045;-72
2022/12/04 02:19:58;;;;;;;66.65;29.40;;;2.10;99.90;;;;;;4154550;28;20040;-71
2022/12/04 02:22:02;;;;;;;62.13;28.85;;;2.10;99.90;;;;;;4143134;28;20042;-71
2022/12/04 02:24:31;;;;;;;61.67;29.75;;;2.10;99.90;;;;;;4159673;28;20085;-72
2022/12/04 02:26:43;;;;;;;63.15;30.05;;;2.10;99.90;;;;;;4156054;28;20038;-72
2022/12/04 02:28:50;;;;;;;65.15;30.45;;;2.10;99.90;;;;;;4148985;28;20084;-72
2022/12/04 02:30:57;;;;;;;61.03;29.25;;;2.10;99.90;;;;;;4147423;28;20062;-72
2022/12/04 02:33:01;;;;;;;69.93;32.20;;;2.10;99.90;;;;;;4146390;28;20046;-72
2022/12/04 02:35:12;;;;;;;65.07;30.73;;;2.00;99.90;;;;;;4145445;28;20512;-71
2022/12/04 02:37:20;;;;;;;61.88;29.58;;;2.10;99.90;;;;;;4150442;28;20073;-72
2022/12/04 02:39:26;;;;;;;59.67;29.08;;;2.20;99.90;;;;;;4151405;28;20419;-72
2022/12/04 02:41:42;;;;;;;63.50;30.27;;;2.20;99.90;;;;;;4150289;28;20128;-72
2022/12/04 02:43:47;;;;;;;63.80;29.98;;;2.20;99.90;;;;;;4150163;28;20038;-72
2022/12/04 02:45:57;;;;;;;69.03;31.20;;;2.10;99.90;;;;;;4148974;28;20477;-72
2022/12/04 02:48:01;;;;;;;64.75;30.45;;;2.10;99.90;;;;;;4150524;28;20037;-71
2022/12/04 02:50:07;;;;;;;65.90;31.13;;;2.10;99.90;;;;;;4160449;28;20455;-72
2022/12/04 02:52:13;;;;;;;66.78;30.90;;;2.20;99.90;;;;;;4145011;28;20066;-72
2022/12/04 02:54:41;;;;;;;58.20;27.80;;;2.20;99.90;;;;;;4154418;28;20049;-72
2022/12/04 02:56:45;;;;;;;58.38;27.20;;;2.30;99.90;;;;;;4148402;28;20050;-73
2022/12/04 02:58:57;;;;;;;54.30;26.65;;;2.40;99.90;;;;;;4158645;28;20381;-72
2022/12/04 03:01:00;;;;;;;61.03;28.37;;;2.50;99.90;;;;;;4139531;28;20188;-71
2022/12/04 03:03:07;;;;;;;61.83;29.02;;;2.50;99.90;;;;;;4153976;28;20034;-72
2022/12/04 03:05:15;;;;;;;62.55;30.88;;;2.60;99.90;;;;;;4136407;28;20072;-72
2022/12/04 03:07:29;;;;;;;62.33;29.02;;;2.50;99.90;;;;;;4151892;28;20033;-72
2022/12/04 03:09:39;;;;;;;59.95;28.65;;;2.60;99.90;;;;;;4157708;28;20037;-72
2022/12/04 03:11:48;;;;;;;62.97;30.90;;;2.60;99.90;;;;;;4152556;28;20044;-72
2022/12/04 03:14:07;;;;;;;63.28;30.80;;;2.50;99.90;;;;;;4157850;28;20132;-73
2022/12/04 03:16:19;;;;;;;64.68;31.92;;;2.40;99.90;;;;;;4149595;28;20488;-72
2022/12/04 03:18:27;;;;;;;64.78;29.77;;;2.40;99.90;;;;;;4145998;28;20030;-72
2022/12/04 03:20:30;;;;;;;61.80;29.70;;;2.40;99.90;;;;;;4145659;28;20421;-72
2022/12/04 03:22:35;;;;;;;61.53;29.02;;;2.50;99.90;;;;;;4151704;28;20095;-72
2022/12/04 03:24:41;;;;;;;66.38;31.50;;;2.50;99.90;;;;;;4140483;28;20038;-71
2022/12/04 03:26:47;;;;;;;64.57;30.92;;;2.40;99.90;;;;;;4152803;28;20477;-72
2022/12/04 03:29:06;;;;;;;69.90;30.95;;;2.30;99.90;;;;;;4145007;28;20478;-72
2022/12/04 03:31:08;;;;;;;68.72;31.40;;;2.30;99.90;;;;;;4143440;28;20069;-72
2022/12/04 03:33:20;;;;;;;66.63;32.05;;;2.30;99.90;;;;;;4152988;28;20037;-72
2022/12/04 03:35:32;;;;;;;59.13;29.05;;;2.30;99.90;;;;;;4152020;28;20401;-73
2022/12/04 03:38:08;;;;;;;59.35;29.92;;;2.40;99.90;;;;;;4149043;28;20120;-72
2022/12/04 03:40:15;;;;;;;58.25;29.52;;;2.40;99.90;;;;;;4150231;28;20030;-72
2022/12/04 03:42:24;;;;;;;58.10;28.65;;;2.40;99.90;;;;;;4149289;28;20116;-72
2022/12/04 03:44:40;;;;;;;60.58;30.33;;;2.40;99.90;;;;;;4153056;28;20041;-71
2022/12/04 03:46:47;;;;;;;62.75;29.55;;;2.40;99.90;;;;;;4151938;28;20037;-72
2022/12/04 03:49:10;;;;;;;65.45;30.00;;;2.30;99.90;;;;;;4153160;28;20120;-72
2022/12/04 03:51:35;;;;;;;61.88;28.38;;;2.30;99.90;;;;;;4150886;28;20530;-72
2022/12/04 03:53:41;;;;;;;58.97;28.67;;;2.40;99.90;;;;;;4150803;28;20030;-72
2022/12/04 03:56:00;;;;;;;60.33;29.25;;;2.30;99.90;;;;;;4150441;28;20084;-72
2022/12/04 03:58:10;;;;;;;63.70;29.75;;;2.20;99.90;;;;;;4147107;28;20404;-72
2022/12/04 04:00:17;;;;;;;61.85;29.77;;;2.20;99.90;;;;;;4147250;28;20035;-72
2022/12/04 04:02:20;;;;;;;66.10;29.83;;;2.20;99.90;;;;;;4151254;28;20041;-73
2022/12/04 04:04:26;;;;;;;58.13;28.02;;;2.20;99.90;;;;;;4149880;28;20034;-72
2022/12/04 04:06:32;;;;;;;60.05;27.85;;;2.20;99.90;;;;;;4129109;28;20046;-72
2022/12/04 04:08:37;;;;;;;58.38;28.73;;;2.20;99.90;;;;;;4151917;28;20397;-72
2022/12/04 04:10:39;;;;;;;54.83;26.42;;;2.30;99.90;;;;;;4156202;28;20041;-72
2022/12/04 04:24:12;;;;;;;51.78;26.85;;;2.30;99.90;;;;;;4144841;28;20097;-72
2022/12/04 04:25:01;;;;;;;54.33;28.02;;;2.50;99.90;;;;;;4150663;28;20046;-72
2022/12/04 04:27:02;;;;;;;56.40;26.88;;;2.50;99.90;;;;;;4152046;28;20034;-72
2022/12/04 04:29:03;;;;;;;53.53;27.00;;;2.50;99.90;;;;;;4148083;28;20378;-72
2022/12/04 04:31:15;;;;;;;53.58;26.42;;;2.50;99.90;;;;;;4148678;28;20041;-72
2022/12/04 04:33:16;;;;;;;54.70;27.53;;;2.50;99.90;;;;;;4150109;28;22059;-72
2022/12/04 04:35:40;;;;;;;55.20;28.33;;;2.50;99.90;;;;;;4138334;28;20045;-73
2022/12/04 04:37:52;;;;;;;57.50;28.63;;;2.40;99.90;;;;;;4149766;28;20040;-72
2022/12/04 04:40:14;;;;;;;54.25;27.40;;;2.40;99.90;;;;;;4147547;28;20038;-73
2022/12/04 04:42:23;;;;;;;52.33;25.77;;;2.40;99.90;;;;;;4153423;28;20084;-71
2022/12/04 04:44:43;;;;;;;56.10;28.00;;;2.40;99.90;;;;;;4153292;28;20042;-72
2022/12/04 04:46:50;;;;;;;56.85;27.85;;;2.40;99.90;;;;;;4146286;28;20034;-71
2022/12/04 04:48:55;;;;;;;53.30;24.70;;;2.30;99.90;;;;;;4158689;28;20034;-72
2022/12/04 04:50:59;;;;;;;49.50;24.40;;;2.30;99.90;;;;;;4154875;28;20030;-70
2022/12/04 04:53:04;;;;;;;51.30;24.73;;;2.20;99.90;;;;;;4155946;28;20033;-71
2022/12/04 04:55:06;;;;;;;55.40;25.70;;;2.20;99.90;;;;;;4150375;28;20053;-72
2022/12/04 04:57:07;;;;;;;51.72;25.67;;;2.10;99.90;;;;;;4152855;28;20040;-72
2022/12/04 04:59:07;;;;;;;48.25;22.08;;;2.10;99.90;;;;;;4157430;28;20030;-71
2022/12/04 05:01:14;;;;;;;48.92;23.88;;;2.10;99.90;;;;;;4156458;28;20473;-71
2022/12/04 05:03:15;;;;;;;44.95;22.75;;;2.00;99.90;;;;;;4146415;28;20496;-72
2022/12/04 05:05:16;;;;;;;47.30;21.77;;;2.00;99.90;;;;;;4155016;28;20132;-72
2022/12/04 05:07:17;;;;;;;45.00;21.27;;;2.00;99.90;;;;;;4147757;28;20034;-72
2022/12/04 05:09:18;;;;;;;41.88;21.40;;;2.00;99.90;;;;;;4155243;28;20036;-72
2022/12/04 05:11:18;;;;;;;48.20;23.70;;;2.00;99.90;;;;;;4148138;28;20097;-71
2022/12/04 05:13:19;;;;;;;45.00;21.65;;;2.00;99.90;;;;;;4150960;28;20068;-71
2022/12/04 05:15:20;;;;;;;47.22;22.23;;;1.90;99.90;;;;;;4145974;28;20073;-72
2022/12/04 05:17:21;;;;;;;44.05;21.83;;;1.90;99.90;;;;;;4152215;28;20100;-72
2022/12/04 05:21:40;;;;;;;39.85;19.27;;;1.90;99.90;;;;;;4145992;28;20103;-71
2022/12/04 05:23:41;;;;;;;39.75;19.98;;;1.90;99.90;;;;;;4151220;28;20034;-71
2022/12/04 05:25:41;;;;;;;39.55;18.83;;;1.90;99.90;;;;;;4154438;28;20513;-72
2022/12/04 05:27:42;;;;;;;40.13;19.25;;;1.90;99.90;;;;;;4146085;28;20026;-71
2022/12/04 05:29:43;;;;;;;41.60;19.88;;;1.90;99.90;;;;;;4155200;28;20390;-71
2022/12/04 05:31:43;;;;;;;37.80;18.88;;;1.90;99.90;;;;;;4149318;28;20057;-71
2022/12/04 05:33:44;;;;;;;38.65;18.98;;;1.90;99.90;;;;;;4152618;28;20116;-71
2022/12/04 05:35:44;;;;;;;37.92;18.85;;;2.00;99.90;;;;;;4145630;28;20038;-71
2022/12/04 05:37:45;;;;;;;38.47;19.30;;;2.00;99.90;;;;;;4155456;28;20428;-71
2022/12/04 05:39:46;;;;;;;35.63;18.40;;;1.90;99.90;;;;;;4153821;28;20434;-72
2022/12/04 05:41:47;;;;;;;33.22;17.10;;;1.90;99.90;;;;;;4144818;28;20396;-72
2022/12/04 05:43:47;;;;;;;34.63;16.88;;;2.00;99.90;;;;;;4146972;28;20041;-72
2022/12/04 05:45:48;;;;;;;34.28;16.63;;;1.90;99.90;;;;;;4146198;28;20401;-71
2022/12/04 05:47:48;;;;;;;39.03;17.92;;;1.90;99.90;;;;;;4158203;28;20030;-71
2022/12/04 05:49:49;;;;;;;36.42;17.88;;;1.90;99.90;;;;;;4157172;28;20033;-72
2022/12/04 05:51:50;;;;;;;33.97;18.38;;;1.90;99.90;;;;;;4148119;28;20068;-72
2022/12/04 05:53:51;;;;;;;35.50;18.27;;;1.90;99.90;;;;;;4153743;28;20040;-71
2022/12/04 05:56:00;;;;;;;35.13;17.48;;;1.90;99.90;;;;;;4153953;28;20077;-72
2022/12/04 05:58:01;;;;;;;34.28;16.92;;;2.00;99.90;;;;;;4153120;28;20533;-71
2022/12/04 06:00:02;;;;;;;34.58;16.77;;;1.90;99.90;;;;;;4150481;28;20033;-72
2022/12/04 06:02:03;;;;;;;31.83;16.17;;;1.90;99.90;;;;;;4144103;28;20053;-71
2022/12/04 06:04:04;;;;;;;32.10;16.65;;;1.90;99.90;;;;;;4151279;28;20057;-72
2022/12/04 06:06:12;;;;;;;30.20;15.38;;;1.90;99.90;;;;;;4150915;28;20498;-70
2022/12/04 06:08:13;;;;;;;31.02;16.15;;;1.90;99.90;;;;;;4139093;28;20072;-72
2022/12/04 06:10:14;;;;;;;30.95;16.33;;;1.90;99.90;;;;;;4153105;28;20034;-72
2022/12/04 06:12:14;;;;;;;34.78;16.63;;;1.90;99.90;;;;;;4151712;28;20049;-71
2022/12/04 06:14:15;;;;;;;34.78;16.73;;;1.90;99.90;;;;;;4146078;28;20080;-72
2022/12/04 06:16:19;;;;;;;32.42;16.33;;;2.00;99.90;;;;;;4149392;28;20038;-72
2022/12/04 06:18:20;;;;;;;33.78;16.55;;;2.00;99.90;;;;;;4147786;28;20365;-71
2022/12/04 06:20:20;;;;;;;32.10;16.08;;;2.00;99.90;;;;;;4153261;28;20033;-72
2022/12/04 06:22:21;;;;;;;33.35;16.33;;;2.10;99.90;;;;;;4149825;28;20049;-72
2022/12/04 06:24:23;;;;;;;34.42;15.88;;;2.00;99.90;;;;;;4154572;28;20049;-72
2022/12/04 06:26:24;;;;;;;30.58;15.70;;;2.00;99.90;;;;;;4157498;28;20033;-73
2022/12/04 06:28:25;;;;;;;33.97;15.77;;;2.00;99.90;;;;;;4144291;28;20033;-72
2022/12/04 06:30:25;;;;;;;34.38;17.67;;;2.00;99.90;;;;;;4155105;28;20554;-72
2022/12/04 06:32:26;;;;;;;31.13;15.68;;;2.00;99.90;;;;;;4138814;28;20046;-71
2022/12/04 06:34:27;;;;;;;33.88;16.73;;;2.00;99.90;;;;;;4151614;28;20133;-71
2022/12/04 06:36:27;;;;;;;30.20;16.20;;;2.00;99.90;;;;;;4150092;28;20580;-69
2022/12/04 06:38:29;;;;;;;30.67;16.30;;;2.10;99.90;;;;;;4153229;28;20036;-71
2022/12/04 06:40:29;;;;;;;28.80;15.35;;;2.10;99.90;;;;;;4154035;28;20496;-71
2022/12/04 06:42:30;;;;;;;34.63;16.58;;;2.10;99.90;;;;;;4150974;28;20037;-71
2022/12/04 06:44:30;;;;;;;31.42;15.55;;;2.10;99.90;;;;;;4148431;28;20042;-71
2022/12/04 06:46:32;;;;;;;33.75;16.35;;;2.20;99.90;;;;;;4153715;28;20095;-71
2022/12/04 06:48:33;;;;;;;31.45;15.90;;;2.20;99.90;;;;;;4144956;28;20438;-72
2022/12/04 06:50:34;;;;;;;29.45;16.23;;;2.20;99.90;;;;;;4153935;28;20038;-71
2022/12/04 06:52:34;;;;;;;31.88;16.95;;;2.20;99.90;;;;;;4151805;28;20115;-71
2022/12/04 06:54:35;;;;;;;32.67;16.73;;;2.20;99.90;;;;;;4159005;28;20391;-72
2022/12/04 06:56:35;;;;;;;33.10;17.65;;;2.30;99.90;;;;;;4147682;28;20568;-72
2022/12/04 06:58:36;;;;;;;37.95;18.23;;;2.20;99.90;;;;;;4143246;28;20424;-71
2022/12/04 07:00:37;;;;;;;35.13;17.52;;;2.20;99.90;;;;;;4145738;28;20949;-71
2022/12/04 07:02:37;;;;;;;34.55;17.52;;;2.20;99.90;;;;;;4151188;28;20070;-72
2022/12/04 07:04:38;;;;;;;40.50;19.45;;;2.20;99.90;;;;;;4152763;28;20033;-72
2022/12/04 07:06:39;;;;;;;40.72;20.30;;;2.20;99.90;;;;;;4148706;28;20038;-70
2022/12/04 07:08:39;;;;;;;41.47;21.02;;;2.20;99.90;;;;;;4149770;28;20121;-70
2022/12/04 07:10:41;;;;;;;41.92;20.98;;;2.20;99.90;;;;;;4149283;28;20045;-71
2022/12/04 07:12:41;;;;;;;43.90;20.80;;;2.20;99.90;;;;;;4142237;28;20053;-71
2022/12/04 07:14:42;;;;;;;45.75;22.02;;;2.10;99.90;;;;;;4150888;28;20054;-71
2022/12/04 07:16:42;;;;;;;45.67;22.75;;;2.10;99.90;;;;;;4152544;28;20041;-72
2022/12/04 07:18:44;;;;;;;42.10;20.67;;;2.10;99.90;;;;;;4148758;28;20038;-71
2022/12/04 07:20:44;;;;;;;39.70;20.65;;;2.00;99.90;;;;;;4153594;28;20026;-71
2022/12/04 07:22:45;;;;;;;41.42;21.25;;;2.00;99.90;;;;;;4143811;28;20040;-72
2022/12/04 07:24:45;;;;;;;38.60;20.48;;;2.00;99.90;;;;;;4145864;28;20034;-71
2022/12/04 07:26:46;;;;;;;35.05;19.90;;;2.00;99.90;;;;;;4143879;28;20099;-71
2022/12/04 07:28:47;;;;;;;43.20;21.92;;;2.00;99.90;;;;;;4148759;28;20417;-69
2022/12/04 07:30:47;;;;;;;38.97;20.95;;;2.00;99.90;;;;;;4147171;28;20041;-69
2022/12/04 07:32:48;;;;;;;38.08;20.35;;;2.10;99.90;;;;;;4155775;28;20037;-69
2022/12/04 07:34:48;;;;;;;44.10;22.92;;;2.10;99.90;;;;;;4155249;28;20069;-69
2022/12/04 07:36:49;;;;;;;40.13;21.75;;;2.10;99.90;;;;;;4149056;28;20472;-70
2022/12/04 07:38:50;;;;;;;41.22;23.02;;;2.10;99.90;;;;;;4152001;28;20489;-69
2022/12/04 07:40:54;;;;;;;44.20;23.35;;;2.10;99.90;;;;;;4150344;28;20026;-69
2022/12/04 07:42:54;;;;;;;44.50;22.63;;;2.10;99.90;;;;;;4151670;28;20080;-70
2022/12/04 07:44:55;;;;;;;42.38;23.65;;;2.10;99.90;;;;;;4151972;28;20033;-70
2022/12/04 07:46:55;;;;;;;40.20;21.63;;;2.10;99.90;;;;;;4148747;28;20048;-70
2022/12/04 07:48:57;;;;;;;38.60;19.40;;;2.20;99.90;;;;;;4159575;28;20061;-70
2022/12/04 07:51:03;;;;;;;40.22;20.33;;;2.20;99.90;;;;;;4149837;28;20058;-69
2022/12/04 07:53:03;;;;;;;34.92;18.52;;;2.20;99.90;;;;;;4155269;28;20053;-70
2022/12/04 07:55:07;;;;;;;33.50;18.15;;;2.20;99.90;;;;;;4147607;28;20472;-69
2022/12/04 07:57:07;;;;;;;32.70;17.35;;;2.30;99.90;;;;;;4149090;28;20034;-70
2022/12/04 07:59:08;;;;;;;31.80;16.73;;;2.20;99.90;;;;;;4153144;28;20041;-70
2022/12/04 08:01:15;;;;;;;28.90;15.80;;;2.30;99.90;;;;;;4152066;28;20036;-70
2022/12/04 08:03:15;;;;;;;34.63;16.73;;;2.30;99.90;;;;;;4147995;28;20034;-70
2022/12/04 08:05:16;;;;;;;30.35;16.30;;;2.20;99.90;;;;;;4142902;28;20500;-70
2022/12/04 08:07:17;;;;;;;28.05;16.02;;;2.20;99.90;;;;;;4155782;28;20500;-70
2022/12/04 08:09:17;;;;;;;27.17;15.00;;;2.20;99.90;;;;;;4157468;28;20034;-70
2022/12/04 08:11:25;;;;;;;30.60;16.55;;;2.20;99.90;;;;;;4151492;28;21125;-70
2022/12/04 08:13:26;;;;;;;29.95;15.27;;;2.10;99.90;;;;;;4153066;28;20533;-70
2022/12/04 08:15:26;;;;;;;27.80;14.50;;;2.20;99.90;;;;;;4152888;28;20073;-70
2022/12/04 08:17:27;;;;;;;26.77;15.38;;;2.20;99.90;;;;;;4154114;28;20033;-70
2022/12/04 08:19:28;;;;;;;29.08;14.85;;;2.20;99.90;;;;;;4157854;28;20038;-70
2022/12/04 08:21:30;;;;;;;27.85;14.45;;;2.30;99.90;;;;;;4154833;28;20041;-70
2022/12/04 08:23:30;;;;;;;28.35;14.73;;;2.30;99.90;;;;;;4147777;28;20080;-70
2022/12/04 08:25:31;;;;;;;30.90;16.35;;;2.30;99.90;;;;;;4152058;28;20041;-70
2022/12/04 08:27:31;;;;;;;34.47;16.40;;;2.20;99.90;;;;;;4158670;28;20137;-69
2022/12/04 08:29:32;;;;;;;28.70;15.00;;;2.30;99.90;;;;;;4152940;28;20033;-70
2022/12/04 08:31:34;;;;;;;27.65;15.65;;;2.30;99.90;;;;;;4152939;28;20161;-69
2022/12/04 08:33:35;;;;;;;28.10;14.27;;;2.30;99.90;;;;;;4148759;28;20046;-70
2022/12/04 08:35:36;;;;;;;30.35;15.75;;;2.20;99.90;;;;;;4157279;28;20591;-70
2022/12/04 08:37:36;;;;;;;30.55;15.65;;;2.30;99.90;;;;;;4154930;28;20040;-70
2022/12/04 08:39:37;;;;;;;29.75;15.88;;;2.30;99.90;;;;;;4153446;28;20052;-70
2022/12/04 08:41:38;;;;;;;29.23;14.43;;;2.30;99.90;;;;;;4146092;28;20156;-70
2022/12/04 08:43:38;;;;;;;29.70;15.73;;;2.20;99.90;;;;;;4147404;28;20117;-70
2022/12/04 08:45:39;;;;;;;31.55;15.85;;;2.20;99.90;;;;;;4154555;28;20417;-70
2022/12/04 08:47:40;;;;;;;30.45;15.77;;;2.20;99.90;;;;;;4153105;28;20581;-70
2022/12/04 08:49:40;;;;;;;27.33;14.15;;;2.20;99.90;;;;;;4151426;28;20034;-68
2022/12/04 08:51:41;;;;;;;30.08;15.65;;;2.20;99.90;;;;;;4154599;28;20057;-70
2022/12/04 08:53:41;;;;;;;23.10;13.50;;;2.20;99.90;;;;;;4156896;28;20037;-69
2022/12/04 08:55:42;;;;;;;27.30;14.43;;;2.30;99.90;;;;;;4153210;28;20069;-70
2022/12/04 08:57:42;;;;;;;26.13;13.95;;;2.20;99.90;;;;;;4155691;28;20479;-70
2022/12/04 08:59:43;;;;;;;27.38;14.25;;;2.20;99.90;;;;;;4154326;28;20084;-70
2022/12/04 09:01:43;;;;;;;27.42;14.45;;;2.30;99.90;;;;;;4149320;28;20042;-69
2022/12/04 09:03:44;;;;;;;23.60;13.43;;;2.40;99.90;;;;;;4155546;28;20034;-68
2022/12/04 09:05:45;;;;;;;22.08;12.77;;;2.30;99.90;;;;;;4155699;28;20042;-68
2022/12/04 09:07:46;;;;;;;26.17;13.65;;;2.40;99.90;;;;;;4157892;28;20088;-69
2022/12/04 09:09:47;;;;;;;26.27;14.05;;;2.40;99.90;;;;;;4150460;28;20477;-68
2022/12/04 09:11:47;;;;;;;25.40;13.07;;;2.40;99.90;;;;;;4153928;28;20491;-68
2022/12/04 09:13:48;;;;;;;26.00;14.20;;;2.40;99.90;;;;;;4150203;28;20062;-69
2022/12/04 09:15:49;;;;;;;23.52;13.70;;;2.50;99.90;;;;;;4145396;28;20049;-68
2022/12/04 09:17:49;;;;;;;28.85;12.93;;;2.50;99.90;;;;;;4155754;28;20037;-69
2022/12/04 09:19:50;;;;;;;25.10;13.60;;;2.50;99.90;;;;;;4154613;28;20026;-68
2022/12/04 09:21:50;;;;;;;23.42;13.43;;;2.50;99.90;;;;;;4146391;28;20111;-69
2022/12/04 09:23:51;;;;;;;25.08;13.63;;;2.40;99.90;;;;;;4159741;28;20030;-69
2022/12/04 09:25:52;;;;;;;23.60;13.50;;;2.50;99.90;;;;;;4153559;28;20040;-69
2022/12/04 09:27:53;;;;;;;24.33;13.70;;;2.50;99.90;;;;;;4153774;28;20095;-69
2022/12/04 09:29:53;;;;;;;27.48;14.90;;;2.60;99.90;;;;;;4150623;28;20452;-69
2022/12/04 09:31:54;;;;;;;25.80;14.07;;;2.50;99.90;;;;;;4148656;28;20390;-69
2022/12/04 09:33:57;;;;;;;27.00;14.52;;;2.50;99.90;;;;;;4157096;28;20029;-70
2022/12/04 09:35:58;;;;;;;24.85;14.77;;;2.50;99.90;;;;;;4154825;28;20503;-69
2022/12/04 09:38:00;;;;;;;29.77;14.95;;;2.40;99.90;;;;;;4152919;28;20120;-70
2022/12/04 09:40:00;;;;;;;25.55;14.23;;;2.30;99.90;;;;;;4148449;28;20435;-69
2022/12/04 09:42:39;;;;;;;25.27;14.48;;;2.40;99.90;;;;;;4153297;28;20044;-69
2022/12/04 09:44:47;;;;;;;24.80;14.13;;;2.40;99.90;;;;;;4144342;28;20092;-69
2022/12/04 09:47:14;;;;;;;25.75;14.02;;;2.50;99.90;;;;;;4154081;28;20176;-69
2022/12/04 09:49:28;;;;;;;24.88;12.98;;;2.50;99.90;;;;;;4156776;28;20063;-69
2022/12/04 09:51:30;;;;;;;23.92;13.45;;;2.50;99.90;;;;;;4155537;28;20042;-70
2022/12/04 09:53:44;;;;;;;28.52;13.75;;;2.60;99.90;;;;;;4160877;28;20045;-69
2022/12/04 09:55:54;;;;;;;26.50;14.18;;;2.60;99.90;;;;;;4146838;28;20506;-69
2022/12/04 09:57:58;;;;;;;28.38;14.55;;;2.50;99.90;;;;;;4147802;28;20061;-69
2022/12/04 09:59:58;;;;;;;27.75;13.65;;;2.40;99.90;;;;;;4147261;28;20447;-69
2022/12/04 10:02:14;;;;;;;25.75;14.20;;;2.50;99.90;;;;;;4157222;28;20033;-69
2022/12/04 10:04:16;;;;;;;26.42;14.07;;;2.50;99.90;;;;;;4148765;28;20480;-69
2022/12/04 10:06:50;;;;;;;25.15;13.40;;;2.50;99.90;;;;;;4151664;28;20041;-70
2022/12/04 10:09:18;;;;;;;27.83;14.98;;;2.50;99.90;;;;;;4123712;28;20049;-69
2022/12/04 10:11:31;;;;;;;25.98;14.15;;;2.60;99.90;;;;;;4147750;28;20484;-69
2022/12/04 10:14:02;;;;;;;24.60;13.63;;;2.60;99.90;;;;;;4154263;28;20042;-69
2022/12/04 10:16:22;;;;;;;28.25;14.82;;;2.70;99.90;;;;;;4125819;28;20046;-69
2022/12/04 10:18:52;;;;;;;24.65;13.18;;;2.70;99.90;;;;;;4154975;28;20080;-69
2022/12/04 10:21:40;;;;;;;29.83;15.55;;;2.80;99.90;;;;;;4149352;28;20034;-69
2022/12/04 10:24:14;;;;;;;23.95;13.60;;;2.80;99.90;;;;;;4081264;29;20046;-69
2022/12/04 10:26:23;;;;;;;27.90;14.63;;;2.70;99.90;;;;;;4144532;28;20037;-69
2022/12/04 10:28:29;;;;;;;27.17;14.35;;;2.70;99.90;;;;;;4148776;28;20041;-69
2022/12/04 10:30:33;;;;;;;24.75;13.95;;;2.70;99.90;;;;;;4156666;28;24927;-69
2022/12/04 10:32:35;;;;;;;27.88;14.48;;;2.70;99.90;;;;;;4156407;28;20040;-70
2022/12/04 10:34:36;;;;;;;29.52;14.63;;;2.70;99.90;;;;;;4156431;28;20030;-69
2022/12/04 10:36:38;;;;;;;30.70;15.32;;;2.70;99.90;;;;;;4152303;28;20042;-69
2022/12/04 10:39:00;;;;;;;27.33;14.63;;;2.60;99.90;;;;;;4158901;28;20444;-70
2022/12/04 10:41:28;;;;;;;27.65;15.43;;;2.60;99.90;;;;;;4141336;28;20453;-69
2022/12/04 10:43:44;;;;;;;25.92;14.90;;;2.50;99.90;;;;;;4144012;28;20050;-70
2022/12/04 10:45:44;;;;;;;30.77;15.57;;;2.50;99.90;;;;;;4148331;28;20069;-70
2022/12/04 10:47:48;;;;;;;29.23;14.93;;;2.50;99.90;;;;;;4149869;28;20053;-70
2022/12/04 10:49:56;;;;;;;33.35;17.13;;;2.60;99.90;;;;;;4154337;28;20037;-70
2022/12/04 10:51:57;;;;;;;30.75;16.48;;;2.60;99.90;;;;;;4149680;28;20048;-69